sensor_id;sensor_type;location;lat;lon;timestamp;pressure;altitude;pressure_sealevel;temperature;humidity
58534;BME280;44109;52.398;7.024;2023-07-31T00:02:03;100699.13;;;16.80;100.00
58534;BME280;44109;52.398;7.024;2023-07-31T00:04:31;100694.13;;;16.98;100.00
58534;BME280;44109;52.398;7.024;2023-07-31T00:07:00;100694.13;;;16.98;100.00
58534;BME280;44109;52.398;7.024;2023-07-31T00:09:30;100689.28;;;17.03;100.00
58534;BME280;44109;52.398;7.024;2023-07-31T00:11:57;100696.53;;;17.00;100.00
58534;BME280;44109;52.398;7.024;2023-07-31T00:14:25;100693.91;;;16.82;100.00
58534;BME280;44109;52.398;7.024;2023-07-31T00:16:53;100681.56;;;16.76;100.00
58534;BME280;44109;52.398;7.024;2023-07-31T00:19:20;100682.25;;;16.87;100.00
58534;BME280;44109;52.398;7.024;2023-07-31T00:21:48;100678.56;;;16.94;100.00
58534;BME280;44109;52.398;7.024;2023-07-31T00:24:17;100682.28;;;16.84;100.00
58534;BME280;44109;52.398;7.024;2023-07-31T00:26:45;100685.56;;;16.75;100.00
58534;BME280;44109;52.398;7.024;2023-07-31T00:29:13;100690.47;;;16.60;100.00
58534;BME280;44109;52.398;7.024;2023-07-31T00:31:40;100685.66;;;16.64;100.00
58534;BME280;44109;52.398;7.024;2023-07-31T00:34:08;100684.81;;;16.67;100.00
58534;BME280;44109;52.398;7.024;2023-07-31T00:36:35;100683.63;;;16.72;100.00
58534;BME280;44109;52.398;7.024;2023-07-31T00:39:03;100687.19;;;16.69;100.00
58534;BME280;44109;52.398;7.024;2023-07-31T00:41:33;100677.63;;;16.66;100.00
58534;BME280;44109;52.398;7.024;2023-07-31T00:44:00;100681.19;;;16.74;100.00
58534;BME280;44109;52.398;7.024;2023-07-31T00:46:28;100676.69;;;16.84;100.00
58534;BME280;44109;52.398;7.024;2023-07-31T00:48:56;100679.69;;;16.62;100.00
58534;BME280;44109;52.398;7.024;2023-07-31T00:51:24;100674.09;;;16.59;100.00
58534;BME280;44109;52.398;7.024;2023-07-31T00:53:52;100676.13;;;16.55;100.00
58534;BME280;44109;52.398;7.024;2023-07-31T00:56:22;100665.41;;;16.46;100.00
58534;BME280;44109;52.398;7.024;2023-07-31T00:58:52;100672.91;;;16.56;100.00
58534;BME280;44109;52.398;7.024;2023-07-31T01:01:19;100680.16;;;16.54;100.00
58534;BME280;44109;52.398;7.024;2023-07-31T01:03:48;100668.13;;;16.53;100.00
58534;BME280;44109;52.398;7.024;2023-07-31T01:06:24;100668.66;;;16.41;100.00
58534;BME280;44109;52.398;7.024;2023-07-31T01:09:08;100672.53;;;16.54;100.00
58534;BME280;44109;52.398;7.024;2023-07-31T01:11:52;100661.88;;;16.38;100.00
58534;BME280;44109;52.398;7.024;2023-07-31T01:17:18;100647.41;;;16.43;100.00
58534;BME280;44109;52.398;7.024;2023-07-31T01:19:47;100649.84;;;16.41;100.00
58534;BME280;44109;52.398;7.024;2023-07-31T01:22:27;100653.88;;;16.40;100.00
58534;BME280;44109;52.398;7.024;2023-07-31T01:25:16;100640.94;;;16.54;100.00
58534;BME280;44109;52.398;7.024;2023-07-31T01:28:02;100644.09;;;16.59;100.00
58534;BME280;44109;52.398;7.024;2023-07-31T01:30:37;100643.97;;;16.70;100.00
58534;BME280;44109;52.398;7.024;2023-07-31T01:33:10;100644.34;;;16.76;100.00
58534;BME280;44109;52.398;7.024;2023-07-31T01:35:38;100625.56;;;16.76;100.00
58534;BME280;44109;52.398;7.024;2023-07-31T01:38:07;100629.63;;;16.64;100.00
58534;BME280;44109;52.398;7.024;2023-07-31T01:40:34;100635.22;;;16.64;100.00
58534;BME280;44109;52.398;7.024;2023-07-31T01:43:03;100642.53;;;16.55;100.00
58534;BME280;44109;52.398;7.024;2023-07-31T01:45:31;100629.69;;;16.57;100.00
58534;BME280;44109;52.398;7.024;2023-07-31T01:47:58;100643.06;;;16.84;100.00
58534;BME280;44109;52.398;7.024;2023-07-31T01:50:26;100630.44;;;16.65;100.00
58534;BME280;44109;52.398;7.024;2023-07-31T01:52:54;100628.53;;;16.55;100.00
58534;BME280;44109;52.398;7.024;2023-07-31T01:55:21;100627.16;;;16.70;100.00
58534;BME280;44109;52.398;7.024;2023-07-31T01:57:49;100618.34;;;16.75;100.00
58534;BME280;44109;52.398;7.024;2023-07-31T02:00:18;100613.16;;;16.73;100.00
58534;BME280;44109;52.398;7.024;2023-07-31T02:02:45;100611.94;;;16.71;100.00
58534;BME280;44109;52.398;7.024;2023-07-31T02:05:13;100618.28;;;16.82;100.00
58534;BME280;44109;52.398;7.024;2023-07-31T02:07:41;100605.47;;;16.81;100.00
58534;BME280;44109;52.398;7.024;2023-07-31T02:10:09;100601.03;;;16.84;100.00
58534;BME280;44109;52.398;7.024;2023-07-31T02:12:36;100601.34;;;16.89;100.00
58534;BME280;44109;52.398;7.024;2023-07-31T02:15:05;100598.53;;;16.93;100.00
58534;BME280;44109;52.398;7.024;2023-07-31T02:17:34;100596.22;;;16.84;100.00
58534;BME280;44109;52.398;7.024;2023-07-31T02:20:02;100590.91;;;16.93;100.00
58534;BME280;44109;52.398;7.024;2023-07-31T02:22:30;100582.13;;;16.91;100.00
58534;BME280;44109;52.398;7.024;2023-07-31T02:24:58;100593.13;;;16.75;100.00
58534;BME280;44109;52.398;7.024;2023-07-31T02:27:25;100573.63;;;16.64;100.00
58534;BME280;44109;52.398;7.024;2023-07-31T02:29:53;100587.97;;;16.66;100.00
58534;BME280;44109;52.398;7.024;2023-07-31T02:32:21;100586.88;;;16.60;100.00
58534;BME280;44109;52.398;7.024;2023-07-31T02:34:50;100581.75;;;16.52;100.00
58534;BME280;44109;52.398;7.024;2023-07-31T02:37:18;100581.75;;;16.52;100.00
58534;BME280;44109;52.398;7.024;2023-07-31T02:39:46;100571.25;;;16.63;100.00
58534;BME280;44109;52.398;7.024;2023-07-31T02:42:14;100570.84;;;16.61;100.00
58534;BME280;44109;52.398;7.024;2023-07-31T02:44:42;100570.53;;;16.55;100.00
58534;BME280;44109;52.398;7.024;2023-07-31T02:47:09;100559.53;;;16.71;100.00
58534;BME280;44109;52.398;7.024;2023-07-31T02:49:37;100569.00;;;16.85;100.00
58534;BME280;44109;52.398;7.024;2023-07-31T02:52:06;100569.94;;;16.74;100.00
58534;BME280;44109;52.398;7.024;2023-07-31T02:54:34;100572.00;;;16.67;100.00
58534;BME280;44109;52.398;7.024;2023-07-31T02:57:02;100559.03;;;16.80;100.00
58534;BME280;44109;52.398;7.024;2023-07-31T02:59:30;100569.13;;;16.70;100.00
58534;BME280;44109;52.398;7.024;2023-07-31T03:01:58;100558.53;;;16.89;100.00
58534;BME280;44109;52.398;7.024;2023-07-31T03:04:25;100559.03;;;16.80;100.00
58534;BME280;44109;52.398;7.024;2023-07-31T03:06:53;100556.25;;;16.80;100.00
58534;BME280;44109;52.398;7.024;2023-07-31T03:09:22;100554.09;;;16.95;100.00
58534;BME280;44109;52.398;7.024;2023-07-31T03:11:49;100546.78;;;17.01;100.00
58534;BME280;44109;52.398;7.024;2023-07-31T03:14:17;100554.28;;;17.08;100.00
58534;BME280;44109;52.398;7.024;2023-07-31T03:16:44;100547.53;;;17.05;100.00
58534;BME280;44109;52.398;7.024;2023-07-31T03:19:12;100544.25;;;17.10;100.00
58534;BME280;44109;52.398;7.024;2023-07-31T03:21:40;100546.88;;;16.94;100.00
58534;BME280;44109;52.398;7.024;2023-07-31T03:24:08;100538.94;;;16.89;100.00
58534;BME280;44109;52.398;7.024;2023-07-31T03:26:37;100547.69;;;16.94;100.00
58534;BME280;44109;52.398;7.024;2023-07-31T03:29:07;100550.94;;;16.89;100.00
58534;BME280;44109;52.398;7.024;2023-07-31T03:31:35;100557.41;;;16.86;100.00
58534;BME280;44109;52.398;7.024;2023-07-31T03:34:02;100561.53;;;16.71;100.00
58534;BME280;44109;52.398;7.024;2023-07-31T03:36:30;100551.53;;;16.70;100.00
58534;BME280;44109;52.398;7.024;2023-07-31T03:38:58;100553.59;;;16.66;100.00
58534;BME280;44109;52.398;7.024;2023-07-31T03:41:25;100556.03;;;16.64;100.00
58534;BME280;44109;52.398;7.024;2023-07-31T03:43:54;100554.75;;;16.72;100.00
58534;BME280;44109;52.398;7.024;2023-07-31T03:46:23;100563.16;;;16.72;100.00
58534;BME280;44109;52.398;7.024;2023-07-31T03:48:51;100544.81;;;16.64;100.00
58534;BME280;44109;52.398;7.024;2023-07-31T03:51:18;100548.22;;;16.82;100.00
58534;BME280;44109;52.398;7.024;2023-07-31T03:53:46;100536.78;;;16.66;100.00
58534;BME280;44109;52.398;7.024;2023-07-31T03:56:14;100552.25;;;16.81;100.00
58534;BME280;44109;52.398;7.024;2023-07-31T03:58:41;100552.78;;;16.65;100.00
58534;BME280;44109;52.398;7.024;2023-07-31T04:01:10;100552.31;;;16.74;100.00
58534;BME280;44109;52.398;7.024;2023-07-31T04:03:38;100548.69;;;16.77;100.00
58534;BME280;44109;52.398;7.024;2023-07-31T04:06:05;100556.72;;;16.75;100.00
58534;BME280;44109;52.398;7.024;2023-07-31T04:08:33;100558.94;;;16.91;100.00
58534;BME280;44109;52.398;7.024;2023-07-31T04:11:01;100552.44;;;16.97;100.00
58534;BME280;44109;52.398;7.024;2023-07-31T04:13:29;100555.63;;;16.99;100.00
58534;BME280;44109;52.398;7.024;2023-07-31T04:15:57;100547.56;;;17.02;100.00
58534;BME280;44109;52.398;7.024;2023-07-31T04:18:26;100549.81;;;17.14;100.00
58534;BME280;44109;52.398;7.024;2023-07-31T04:20:53;100541.97;;;17.02;100.00
58534;BME280;44109;52.398;7.024;2023-07-31T04:23:21;100547.56;;;17.02;100.00
58534;BME280;44109;52.398;7.024;2023-07-31T04:25:49;100551.16;;;17.02;100.00
58534;BME280;44109;52.398;7.024;2023-07-31T04:28:17;100537.63;;;16.97;100.00
58534;BME280;44109;52.398;7.024;2023-07-31T04:30:44;100553.91;;;17.09;100.00
58534;BME280;44109;52.398;7.024;2023-07-31T04:33:12;100537.16;;;17.02;100.00
58534;BME280;44109;52.398;7.024;2023-07-31T04:35:41;100548.31;;;17.06;100.00
58534;BME280;44109;52.398;7.024;2023-07-31T04:38:08;100536.75;;;17.04;100.00
58534;BME280;44109;52.398;7.024;2023-07-31T04:40:36;100539.66;;;16.96;100.00
58534;BME280;44109;52.398;7.024;2023-07-31T04:43:03;100536.28;;;17.09;100.00
58534;BME280;44109;52.398;7.024;2023-07-31T04:45:31;100536.56;;;17.18;100.00
58534;BME280;44109;52.398;7.024;2023-07-31T04:47:59;100533.66;;;17.25;100.00
58534;BME280;44109;52.398;7.024;2023-07-31T04:50:26;100529.06;;;17.08;100.00
58534;BME280;44109;52.398;7.024;2023-07-31T04:52:57;100534.63;;;17.11;100.00
58534;BME280;44109;52.398;7.024;2023-07-31T04:55:25;100535.53;;;17.05;100.00
58534;BME280;44109;52.398;7.024;2023-07-31T04:57:52;100526.75;;;17.03;100.00
58534;BME280;44109;52.398;7.024;2023-07-31T05:00:20;100531.47;;;17.09;100.00
58534;BME280;44109;52.398;7.024;2023-07-31T05:02:48;100527.41;;;17.14;100.00
58534;BME280;44109;52.398;7.024;2023-07-31T05:05:15;100528.28;;;17.07;100.00
58534;BME280;44109;52.398;7.024;2023-07-31T05:07:43;100521.41;;;17.12;100.00
58534;BME280;44109;52.398;7.024;2023-07-31T05:10:12;100519.44;;;17.12;100.00
58534;BME280;44109;52.398;7.024;2023-07-31T05:12:39;100531.03;;;17.11;100.00
58534;BME280;44109;52.398;7.024;2023-07-31T05:15:08;100523.47;;;17.08;100.00
58534;BME280;44109;52.398;7.024;2023-07-31T05:17:36;100517.88;;;17.08;100.00
58534;BME280;44109;52.398;7.024;2023-07-31T05:20:05;100523.53;;;17.04;100.00
58534;BME280;44109;52.398;7.024;2023-07-31T05:22:33;100516.31;;;17.03;100.00
58534;BME280;44109;52.398;7.024;2023-07-31T05:25:01;100513.75;;;17.16;100.00
58534;BME280;44109;52.398;7.024;2023-07-31T05:27:32;100495.91;;;17.03;100.00
58534;BME280;44109;52.398;7.024;2023-07-31T05:30:00;100505.47;;;17.09;100.00
58534;BME280;44109;52.398;7.024;2023-07-31T05:32:27;100513.13;;;17.05;100.00
58534;BME280;44109;52.398;7.024;2023-07-31T05:34:55;100517.97;;;17.01;100.00
58534;BME280;44109;52.398;7.024;2023-07-31T05:37:23;100511.69;;;16.89;100.00
58534;BME280;44109;52.398;7.024;2023-07-31T05:39:51;100510.88;;;16.92;100.00
58534;BME280;44109;52.398;7.024;2023-07-31T05:42:18;100517.78;;;17.15;100.00
58534;BME280;44109;52.398;7.024;2023-07-31T05:44:47;100514.19;;;17.14;100.00
58534;BME280;44109;52.398;7.024;2023-07-31T05:47:15;100503.06;;;17.07;100.00
58534;BME280;44109;52.398;7.024;2023-07-31T05:49:43;100510.34;;;17.32;100.00
58534;BME280;44109;52.398;7.024;2023-07-31T05:52:11;100512.91;;;17.19;100.00
58534;BME280;44109;52.398;7.024;2023-07-31T05:54:38;100509.84;;;17.10;100.00
58534;BME280;44109;52.398;7.024;2023-07-31T05:57:06;100506.47;;;17.22;100.00
58534;BME280;44109;52.398;7.024;2023-07-31T05:59:34;100508.53;;;17.18;100.00
58534;BME280;44109;52.398;7.024;2023-07-31T06:02:03;100508.19;;;17.39;100.00
58534;BME280;44109;52.398;7.024;2023-07-31T06:04:31;100499.88;;;17.36;100.00
58534;BME280;44109;52.398;7.024;2023-07-31T06:06:58;100502.16;;;17.68;100.00
58534;BME280;44109;52.398;7.024;2023-07-31T06:09:27;100504.75;;;17.55;100.00
58534;BME280;44109;52.398;7.024;2023-07-31T06:11:54;100483.94;;;17.29;100.00
58534;BME280;44109;52.398;7.024;2023-07-31T06:14:22;100491.22;;;17.23;100.00
58534;BME280;44109;52.398;7.024;2023-07-31T06:16:50;100497.06;;;17.09;100.00
58534;BME280;44109;52.398;7.024;2023-07-31T06:19:18;100500.22;;;17.38;100.00
58534;BME280;44109;52.398;7.024;2023-07-31T06:21:46;100503.75;;;17.42;100.00
58534;BME280;44109;52.398;7.024;2023-07-31T06:24:14;100499.34;;;17.68;100.00
58534;BME280;44109;52.398;7.024;2023-07-31T06:26:45;100498.84;;;17.49;100.00
58534;BME280;44109;52.398;7.024;2023-07-31T06:29:12;100500.78;;;17.25;100.00
58534;BME280;44109;52.398;7.024;2023-07-31T06:31:40;100499.00;;;17.39;100.00
58534;BME280;44109;52.398;7.024;2023-07-31T06:34:09;100502.19;;;17.41;100.00
58534;BME280;44109;52.398;7.024;2023-07-31T06:36:38;100497.09;;;17.32;100.00
58534;BME280;44109;52.398;7.024;2023-07-31T06:39:06;100480.50;;;17.18;100.00
58534;BME280;44109;52.398;7.024;2023-07-31T06:41:35;100489.31;;;17.43;100.00
58534;BME280;44109;52.398;7.024;2023-07-31T06:44:02;100481.38;;;17.38;100.00
58534;BME280;44109;52.398;7.024;2023-07-31T06:46:30;100482.50;;;17.44;100.00
58534;BME280;44109;52.398;7.024;2023-07-31T06:48:58;100474.69;;;17.56;100.00
58534;BME280;44109;52.398;7.024;2023-07-31T06:51:25;100474.75;;;17.52;100.00
58534;BME280;44109;52.398;7.024;2023-07-31T06:53:54;100467.75;;;17.40;100.00
58534;BME280;44109;52.398;7.024;2023-07-31T06:56:22;100465.84;;;17.57;100.00
58534;BME280;44109;52.398;7.024;2023-07-31T06:58:50;100473.13;;;17.55;100.00
58534;BME280;44109;52.398;7.024;2023-07-31T07:01:17;100469.94;;;17.53;100.00
58534;BME280;44109;52.398;7.024;2023-07-31T07:03:45;100477.09;;;17.30;100.00
58534;BME280;44109;52.398;7.024;2023-07-31T07:06:13;100475.38;;;17.40;100.00
58534;BME280;44109;52.398;7.024;2023-07-31T07:08:40;100471.59;;;17.50;100.00
58534;BME280;44109;52.398;7.024;2023-07-31T07:11:09;100463.22;;;17.70;100.00
58534;BME280;44109;52.398;7.024;2023-07-31T07:13:37;100463.38;;;17.63;100.00
58534;BME280;44109;52.398;7.024;2023-07-31T07:16:04;100457.75;;;17.63;100.00
58534;BME280;44109;52.398;7.024;2023-07-31T07:18:32;100457.84;;;17.83;100.00
58534;BME280;44109;52.398;7.024;2023-07-31T07:21:00;100459.47;;;18.04;100.00
58534;BME280;44109;52.398;7.024;2023-07-31T07:23:28;100459.47;;;17.80;100.00
58534;BME280;44109;52.398;7.024;2023-07-31T07:25:56;100451.47;;;18.02;100.00
58534;BME280;44109;52.398;7.024;2023-07-31T07:28:25;100446.16;;;18.08;100.00
58534;BME280;44109;52.398;7.024;2023-07-31T07:30:54;100435.00;;;18.04;100.00
58534;BME280;44109;52.398;7.024;2023-07-31T07:33:22;100448.59;;;18.25;100.00
58534;BME280;44109;52.398;7.024;2023-07-31T07:35:49;100436.75;;;18.18;100.00
58534;BME280;44109;52.398;7.024;2023-07-31T07:38:17;100429.94;;;17.95;100.00
58534;BME280;44109;52.398;7.024;2023-07-31T07:40:45;100442.81;;;17.93;100.00
58534;BME280;44109;52.398;7.024;2023-07-31T07:43:16;100426.34;;;17.95;100.00
58534;BME280;44109;52.398;7.024;2023-07-31T07:45:45;100429.94;;;17.95;100.00
58534;BME280;44109;52.398;7.024;2023-07-31T07:48:12;100429.09;;;18.18;100.00
58534;BME280;44109;52.398;7.024;2023-07-31T07:50:40;100415.56;;;18.33;100.00
58534;BME280;44109;52.398;7.024;2023-07-31T07:53:08;100428.53;;;18.27;100.00
58534;BME280;44109;52.398;7.024;2023-07-31T07:55:35;100420.19;;;18.23;100.00
58534;BME280;44109;52.398;7.024;2023-07-31T07:58:03;100415.03;;;17.98;100.00
58534;BME280;44109;52.398;7.024;2023-07-31T08:00:31;100409.38;;;18.22;100.00
58534;BME280;44109;52.398;7.024;2023-07-31T08:02:59;100411.44;;;17.98;100.00
58534;BME280;44109;52.398;7.024;2023-07-31T08:05:27;100393.47;;;17.95;100.00
58534;BME280;44109;52.398;7.024;2023-07-31T08:07:55;100415.84;;;17.99;100.00
58534;BME280;44109;52.398;7.024;2023-07-31T08:10:23;100406.19;;;18.20;100.00
58534;BME280;44109;52.398;7.024;2023-07-31T08:12:50;100391.59;;;18.29;100.00
58534;BME280;44109;52.398;7.024;2023-07-31T08:15:18;100397.63;;;18.47;100.00
58534;BME280;44109;52.398;7.024;2023-07-31T08:17:45;100390.06;;;18.44;100.00
58534;BME280;44109;52.398;7.024;2023-07-31T08:20:14;100384.16;;;18.38;100.00
58534;BME280;44109;52.398;7.024;2023-07-31T08:22:42;100389.22;;;18.27;100.00
58534;BME280;44109;52.398;7.024;2023-07-31T08:25:10;100390.50;;;18.42;100.00
58534;BME280;44109;52.398;7.024;2023-07-31T08:27:37;100389.44;;;18.36;100.00
58534;BME280;44109;52.398;7.024;2023-07-31T08:30:06;100385.13;;;18.32;100.00
58534;BME280;44109;52.398;7.024;2023-07-31T08:32:34;100382.00;;;18.46;100.00
58534;BME280;44109;52.398;7.024;2023-07-31T08:35:02;100383.00;;;18.56;100.00
58534;BME280;44109;52.398;7.024;2023-07-31T08:37:31;100384.75;;;18.66;100.00
58534;BME280;44109;52.398;7.024;2023-07-31T08:39:59;100371.91;;;18.48;100.00
58534;BME280;44109;52.398;7.024;2023-07-31T08:42:27;100365.81;;;18.34;100.00
58534;BME280;44109;52.398;7.024;2023-07-31T08:44:55;100375.41;;;18.36;100.00
58534;BME280;44109;52.398;7.024;2023-07-31T08:47:24;100375.13;;;18.31;100.00
58534;BME280;44109;52.398;7.024;2023-07-31T08:49:54;100375.63;;;18.62;100.00
58534;BME280;44109;52.398;7.024;2023-07-31T08:52:23;100372.47;;;18.60;100.00
58534;BME280;44109;52.398;7.024;2023-07-31T08:54:52;100371.47;;;18.70;100.00
58534;BME280;44109;52.398;7.024;2023-07-31T08:57:20;100369.09;;;18.48;100.00
58534;BME280;44109;52.398;7.024;2023-07-31T08:59:48;100379.13;;;18.49;100.00
58534;BME280;44109;52.398;7.024;2023-07-31T09:02:17;100368.47;;;18.41;100.00
58534;BME280;44109;52.398;7.024;2023-07-31T09:04:46;100372.34;;;18.47;100.00
58534;BME280;44109;52.398;7.024;2023-07-31T09:07:15;100373.31;;;18.57;100.00
58534;BME280;44109;52.398;7.024;2023-07-31T09:09:46;100374.38;;;18.46;100.00
58534;BME280;44109;52.398;7.024;2023-07-31T09:12:16;100364.03;;;18.60;100.00
58534;BME280;44109;52.398;7.024;2023-07-31T09:14:45;100367.16;;;18.45;100.00
58534;BME280;44109;52.398;7.024;2023-07-31T09:17:13;100366.69;;;18.67;100.00
58534;BME280;44109;52.398;7.024;2023-07-31T09:19:41;100353.53;;;18.64;100.00
58534;BME280;44109;52.398;7.024;2023-07-31T09:22:08;100370.41;;;18.44;100.00
58534;BME280;44109;52.398;7.024;2023-07-31T09:24:36;100360.91;;;18.38;100.00
58534;BME280;44109;52.398;7.024;2023-07-31T09:27:06;100368.22;;;18.71;100.00
58534;BME280;44109;52.398;7.024;2023-07-31T09:29:35;100359.19;;;18.80;100.00
58534;BME280;44109;52.398;7.024;2023-07-31T09:32:03;100369.13;;;18.65;100.00
58534;BME280;44109;52.398;7.024;2023-07-31T09:34:38;100372.41;;;18.63;100.00
58534;BME280;44109;52.398;7.024;2023-07-31T09:37:06;100370.56;;;18.37;100.00
58534;BME280;44109;52.398;7.024;2023-07-31T09:39:45;100363.41;;;18.72;100.00
58534;BME280;44109;52.398;7.024;2023-07-31T09:42:14;100363.13;;;18.46;100.00
58534;BME280;44109;52.398;7.024;2023-07-31T09:44:52;100351.25;;;18.39;100.00
58534;BME280;44109;52.398;7.024;2023-07-31T09:47:23;100353.31;;;18.55;100.00
58534;BME280;44109;52.398;7.024;2023-07-31T09:49:51;100348.03;;;18.57;100.00
58534;BME280;44109;52.398;7.024;2023-07-31T09:52:19;100348.66;;;18.84;100.00
58534;BME280;44109;52.398;7.024;2023-07-31T09:54:46;100349.91;;;18.99;100.00
58534;BME280;44109;52.398;7.024;2023-07-31T09:57:15;100354.47;;;19.10;100.00
58534;BME280;44109;52.398;7.024;2023-07-31T09:59:46;100341.19;;;19.10;100.00
58534;BME280;44109;52.398;7.024;2023-07-31T10:02:21;100340.75;;;19.12;100.00
58534;BME280;44109;52.398;7.024;2023-07-31T10:04:50;100334.44;;;19.08;100.00
58534;BME280;44109;52.398;7.024;2023-07-31T10:07:22;100338.47;;;19.07;100.00
58534;BME280;44109;52.398;7.024;2023-07-31T10:09:53;100332.50;;;19.05;100.00
58534;BME280;44109;52.398;7.024;2023-07-31T10:12:23;100338.81;;;18.92;100.00
58534;BME280;44109;52.398;7.024;2023-07-31T10:14:54;100344.09;;;19.07;100.00
58534;BME280;44109;52.398;7.024;2023-07-31T10:17:24;100330.19;;;19.16;100.00
58534;BME280;44109;52.398;7.024;2023-07-31T10:19:53;100311.94;;;18.91;100.00
58534;BME280;44109;52.398;7.024;2023-07-31T10:22:21;100330.72;;;19.27;100.00
58534;BME280;44109;52.398;7.024;2023-07-31T10:24:50;100328.28;;;19.13;100.00
58534;BME280;44109;52.398;7.024;2023-07-31T10:27:21;100329.31;;;19.19;100.00
58534;BME280;44109;52.398;7.024;2023-07-31T10:29:49;100331.78;;;18.84;100.00
58534;BME280;44109;52.398;7.024;2023-07-31T10:32:20;100332.50;;;18.88;100.00
58534;BME280;44109;52.398;7.024;2023-07-31T10:34:51;100338.56;;;18.87;100.00
58534;BME280;44109;52.398;7.024;2023-07-31T10:37:23;100338.56;;;19.03;100.00
58534;BME280;44109;52.398;7.024;2023-07-31T10:39:57;100326.34;;;19.26;100.00
58534;BME280;44109;52.398;7.024;2023-07-31T10:42:31;100334.03;;;19.38;100.00
58534;BME280;44109;52.398;7.024;2023-07-31T10:45:02;100325.97;;;19.40;100.00
58534;BME280;44109;52.398;7.024;2023-07-31T10:47:30;100324.19;;;19.30;100.00
58534;BME280;44109;52.398;7.024;2023-07-31T10:50:17;100325.66;;;19.22;100.00
58534;BME280;44109;52.398;7.024;2023-07-31T10:52:47;100313.00;;;19.14;100.00
58534;BME280;44109;52.398;7.024;2023-07-31T10:55:24;100312.78;;;19.21;100.00
58534;BME280;44109;52.398;7.024;2023-07-31T10:57:57;100311.75;;;19.15;100.00
58534;BME280;44109;52.398;7.024;2023-07-31T11:00:33;100316.13;;;19.16;100.00
58534;BME280;44109;52.398;7.024;2023-07-31T11:03:02;100317.22;;;19.22;100.00
58534;BME280;44109;52.398;7.024;2023-07-31T11:05:49;100318.84;;;19.36;100.00
58534;BME280;44109;52.398;7.024;2023-07-31T11:08:20;100309.28;;;19.33;100.00
58534;BME280;44109;52.398;7.024;2023-07-31T11:10:51;100317.63;;;19.37;100.00
58534;BME280;44109;52.398;7.024;2023-07-31T11:13:34;100313.72;;;19.63;100.00
58534;BME280;44109;52.398;7.024;2023-07-31T11:16:08;100304.91;;;19.61;100.00
58534;BME280;44109;52.398;7.024;2023-07-31T11:18:37;100317.69;;;19.49;100.00
58534;BME280;44109;52.398;7.024;2023-07-31T11:21:08;100315.28;;;19.64;100.00
58534;BME280;44109;52.398;7.024;2023-07-31T11:23:37;100305.00;;;19.58;100.00
58534;BME280;44109;52.398;7.024;2023-07-31T11:26:06;100301.84;;;19.56;100.00
58534;BME280;44109;52.398;7.024;2023-07-31T11:28:34;100304.84;;;19.48;100.00
58534;BME280;44109;52.398;7.024;2023-07-31T11:31:02;100307.31;;;19.46;100.00
58534;BME280;44109;52.398;7.024;2023-07-31T11:33:30;100302.22;;;19.41;100.00
58534;BME280;44109;52.398;7.024;2023-07-31T11:35:58;100301.84;;;19.85;100.00
58534;BME280;44109;52.398;7.024;2023-07-31T11:38:28;100299.00;;;20.14;100.00
58534;BME280;44109;52.398;7.024;2023-07-31T11:40:58;100291.66;;;20.04;100.00
58534;BME280;44109;52.398;7.024;2023-07-31T11:43:30;100285.81;;;20.11;100.00
58534;BME280;44109;52.398;7.024;2023-07-31T11:46:00;100304.16;;;20.02;100.00
58534;BME280;44109;52.398;7.024;2023-07-31T11:48:30;100285.97;;;19.78;100.00
58534;BME280;44109;52.398;7.024;2023-07-31T11:51:01;100300.38;;;19.80;100.00
58534;BME280;44109;52.398;7.024;2023-07-31T11:53:36;100291.59;;;19.78;100.00
58534;BME280;44109;52.398;7.024;2023-07-31T11:56:11;100298.31;;;19.68;100.00
58534;BME280;44109;52.398;7.024;2023-07-31T11:58:41;100300.63;;;19.86;100.00
58534;BME280;44109;52.398;7.024;2023-07-31T12:01:11;100302.25;;;19.70;100.00
58534;BME280;44109;52.398;7.024;2023-07-31T12:03:41;100290.28;;;19.95;100.00
58534;BME280;44109;52.398;7.024;2023-07-31T12:06:09;100289.56;;;19.79;100.00
58534;BME280;44109;52.398;7.024;2023-07-31T12:08:38;100296.91;;;19.60;100.00
58534;BME280;44109;52.398;7.024;2023-07-31T12:11:09;100287.06;;;19.68;100.00
58534;BME280;44109;52.398;7.024;2023-07-31T12:13:36;100290.56;;;19.72;100.00
58534;BME280;44109;52.398;7.024;2023-07-31T12:16:04;100291.91;;;19.80;100.00
58534;BME280;44109;52.398;7.024;2023-07-31T12:18:34;100290.34;;;19.79;100.00
58534;BME280;44109;52.398;7.024;2023-07-31T12:21:05;100288.72;;;19.65;100.00
58534;BME280;44109;52.398;7.024;2023-07-31T12:23:35;100284.09;;;20.00;100.00
58534;BME280;44109;52.398;7.024;2023-07-31T12:26:06;100278.00;;;20.02;100.00
58534;BME280;44109;52.398;7.024;2023-07-31T12:28:36;100287.59;;;20.05;100.00
58534;BME280;44109;52.398;7.024;2023-07-31T12:31:05;100286.22;;;19.96;100.00
58534;BME280;44109;52.398;7.024;2023-07-31T12:33:35;100278.94;;;20.24;100.00
58534;BME280;44109;52.398;7.024;2023-07-31T12:36:08;100271.63;;;20.27;100.00
58534;BME280;44109;52.398;7.024;2023-07-31T12:38:36;100273.13;;;20.44;100.00
58534;BME280;44109;52.398;7.024;2023-07-31T12:41:05;100280.88;;;20.40;100.00
58534;BME280;44109;52.398;7.024;2023-07-31T12:43:33;100281.75;;;20.24;100.00
58534;BME280;44109;52.398;7.024;2023-07-31T12:46:01;100282.22;;;20.23;100.00
58534;BME280;44109;52.398;7.024;2023-07-31T12:48:29;100270.41;;;20.28;100.00
58534;BME280;44109;52.398;7.024;2023-07-31T12:50:58;100275.81;;;20.35;100.00
58534;BME280;44109;52.398;7.024;2023-07-31T12:53:26;100279.78;;;20.50;100.00